CST,Max TemperatureF,Mean TemperatureF,Min TemperatureF,Max Dew PointF,MeanDew PointF,Min DewpointF,Max Humidity, Mean Humidity, Min Humidity, Max Sea Level PressureIn, Mean Sea Level PressureIn, Min Sea Level PressureIn, Max VisibilityMiles, Mean VisibilityMiles, Min VisibilityMiles, Max Wind SpeedMPH, Mean Wind SpeedMPH, Max Gust SpeedMPH,PrecipitationIn, CloudCover, Events, WindDirDegrees
2011-11-1,77,62,46,50,46,39,77,58,38,29.97,29.91,29.84,10,10,10,22,12,32,0.00,3,,181
2011-11-2,67,53,38,47,41,37,100,74,48,30.16,30.02,29.90,10,7,1,28,14,40,0.42,8,Rain-Snow-Thunderstorm,1
2011-11-3,54,41,28,36,31,26,92,64,35,30.32,30.24,30.14,10,10,8,25,12,33,0.01,2,Rain,335
2011-11-4,59,43,26,42,33,25,100,72,43,30.30,30.20,30.06,10,10,6,17,6,22,0.00,0,,134
2011-11-5,62,52,41,45,42,39,93,72,51,30.06,29.92,29.75,10,10,9,25,14,36,0.00,1,,158
2011-11-6,66,54,41,47,39,31,83,56,29,30.07,29.91,29.75,10,10,10,23,7,31,0.00,0,,234
2011-11-7,59,48,37,55,45,32,100,81,61,30.15,30.02,29.89,10,6,2,30,11,38,2.05,7,Rain-Thunderstorm,42
2011-11-8,47,42,36,46,43,35,100,96,92,30.00,29.92,29.87,10,5,1,28,12,36,0.93,8,Rain-Thunderstorm,22
2011-11-9,54,44,34,36,31,23,100,68,36,30.35,30.24,30.04,10,10,8,24,10,31,0.09,2,Rain,308
2011-11-10,51,41,30,31,25,19,89,59,29,30.38,30.26,30.06,10,10,10,14,5,17,0.00,0,,281
2011-11-11,67,49,31,39,33,27,89,57,24,30.04,29.86,29.79,10,10,10,15,7,20,0.00,0,,213
2011-11-12,67,54,40,42,36,33,79,54,29,29.77,29.59,29.43,10,10,10,24,10,33,0.00,0,,183
2011-11-13,67,53,39,44,35,28,82,53,24,29.61,29.52,29.34,10,10,10,22,7,30,0.00,0,,244
2011-11-14,62,48,34,37,34,30,92,61,30,29.77,29.68,29.51,10,10,10,17,4,23,0.00,0,,276
2011-11-15,67,49,31,37,31,25,89,58,26,30.05,29.82,29.70,10,10,10,18,6,23,0.00,0,,328
2011-11-16,45,38,31,29,21,13,82,55,27,30.39,30.26,30.07,10,10,10,14,7,20,0.00,4,,331
2011-11-17,50,37,23,28,24,18,92,61,29,30.42,30.28,30.04,10,10,10,21,8,28,0.00,0,,215
2011-11-18,60,50,40,39,32,25,61,50,39,30.03,29.83,29.70,10,10,10,29,15,45,0.00,0,,189
2011-11-19,69,50,31,52,39,25,78,59,39,30.16,29.75,29.55,10,10,10,26,15,38,0.00,4,,240
2011-11-20,36,33,29,31,26,23,89,79,69,30.30,30.24,30.16,10,10,7,18,9,23,0.00,8,,38
2011-11-21,42,38,34,39,34,30,96,83,70,30.27,30.18,30.06,10,8,5,10,3,14,0.01,8,Rain,55
2011-11-22,45,39,33,41,39,33,96,89,82,30.21,30.08,30.02,10,6,3,12,5,14,0.13,8,Rain,333
2011-11-23,62,45,28,43,36,28,100,73,46,30.27,30.21,30.15,10,4,0,12,5,14,0.00,3,Fog,164
2011-11-24,68,55,42,45,42,39,89,64,39,30.15,30.07,29.95,10,10,9,22,11,31,0.00,0,,190
2011-11-25,59,53,46,52,48,43,86,79,72,29.93,29.82,29.74,10,9,6,21,13,30,0.06,6,Rain,191
2011-11-26,55,45,35,54,42,24,100,75,49,30.24,29.93,29.76,10,7,2,30,14,41,0.96,7,Rain,330
2011-11-27,42,33,24,25,22,19,88,67,46,30.33,30.26,30.22,10,10,10,24,9,32,0.00,3,,326
2011-11-28,47,34,20,29,24,19,100,71,42,30.23,30.15,30.08,10,10,10,7,1,9,0.00,0,,333
2011-11-29,49,38,26,31,22,16,85,56,26,30.32,30.26,30.14,10,10,10,18,9,23,0.00,0,,336
2011-11-30,54,38,21,23,20,17,92,58,24,30.25,30.11,29.98,10,10,10,17,6,24,0.00,0,,159